Data for 08/12/2010

Time Sea-Level Adjusted Pressure Absolute Pressure Temperature Relative Humidity Dew Point   
(mb) (inHg) (mb) (inHg) (C) (F) (%) (C) (F)
00:05 1017 30.03 846 24.98 12.7 54.8 66 6.5 43.6
00:10 1017 30.03 846 24.98 12.5 54.5 66 6.3 43.4
00:15 1017 30.03 846 24.98 12.3 54.2 67 6.5 43.6
00:20 1017 30.03 846 24.98 12 53.5 69 6.5 43.7
00:25 1017 30.03 846 24.98 11.8 53.3 69 6.4 43.5
00:30 1017 30.03 846 24.98 11.8 53.3 68 6.2 43.2
00:35 1017 30.03 846 24.98 11.9 53.5 68 6.3 43.3
00:40 1017 30.03 846 24.98 12 53.6 68 6.3 43.4
00:45 1017 30.03 846 24.98 12 53.7 69 6.6 43.9
00:50 1017 30.03 846 24.98 11.8 53.3 71 6.7 44.1
00:55 1017 30.03 846 24.98 11.7 53 70 6.4 43.5
01:00 1017 30.03 846 24.98 11.9 53.3 68 6.2 43.1
01:05 1017 30.03 847 25.01 12 53.7 68 6.4 43.5
01:10 1017 30.03 847 25.01 11.7 53.1 72 6.8 44.2
01:15 1017 30.03 847 25.01 11.3 52.4 72 6.5 43.7
01:20 1017 30.03 847 25.01 11.3 52.3 74 6.7 44.1
01:25 1017 30.03 847 25.01 10.9 51.6 74 6.4 43.5
01:30 1017 30.03 847 25.01 10.9 51.6 73 6.3 43.4
01:35 1017 30.03 847 25.01 11 51.8 72 6.1 43.1
01:40 1017 30.03 847 25.01 10.9 51.5 74 6.3 43.4
01:45 1017 30.03 847 25.01 10.6 51.1 73 6 42.7
01:50 1017 30.03 847 25.01 10.8 51.4 72 5.9 42.7
01:55 1017 30.03 847 25.01 10.7 51.2 71 5.7 42.2
02:00 1017 30.03 847 25.01 10.6 51 71 5.5 41.8
02:05 1018 30.06 847 25.01 10.7 51.2 69 5.2 41.4
02:10 1018 30.06 847 25.01 10.7 51.3 69 5.3 41.6
02:15 1017 30.03 847 25.01 10.6 51 70 5.4 41.7
02:20 1017 30.03 847 25.01 10.5 50.9 70 5.3 41.5
02:25 1017 30.03 847 25.01 10.6 51 70 5.3 41.6
02:30 1017 30.03 847 25.01 10.6 51.1 70 5.4 41.7
02:35 1018 30.06 847 25.01 10.6 51.1 70 5.4 41.7
02:40 1018 30.06 847 25.01 10.5 50.9 70 5.3 41.5
02:45 1018 30.06 847 25.01 10.5 50.8 71 5.4 41.8
02:50 1018 30.06 847 25.01 10.4 50.6 70 5.2 41.4
02:55 1018 30.06 847 25.01 10.2 50.4 70 5.1 41.2
03:00 1018 30.06 847 25.01 10.1 50.3 71 5.1 41.2
03:05 1018 30.06 847 25.01 10.1 50.1 72 5.2 41.4
03:10 1018 30.06 847 25.01 10.1 50.1 71 5.1 41.1
03:15 1018 30.06 847 25.01 10 50.1 73 5.4 41.6
03:20 1018 30.06 847 25.01 9.8 49.6 74 5.4 41.8
03:25 1018 30.06 847 25.01 9.5 49.1 75 5.3 41.6
03:30 1018 30.06 847 25.01 9.3 48.7 76 5.3 41.6
03:35 1018 30.06 847 25.01 9.3 48.7 75 5.2 41.3
03:40 1018 30.06 847 25.01 9.4 49 75 5.2 41.4
03:45 1018 30.06 847 25.01 9.4 48.9 75 5.2 41.3
03:50 1018 30.06 847 25.01 9.3 48.8 76 5.2 41.4
03:55 1017 30.03 847 25.01 9.1 48.3 77 5.4 41.6
04:00 1018 30.06 847 25.01 8.7 47.6 79 5.3 41.5
04:05 1018 30.06 847 25.01 8.4 47.1 80 5.2 41.3
04:10 1018 30.06 847 25.01 8.3 46.9 79 4.8 40.7
04:15 1018 30.06 847 25.01 8.4 47.2 77 4.7 40.4
04:20 1018 30.06 847 25.01 8.7 47.7 75 4.6 40.3
04:25 1018 30.06 847 25.01 8.9 48 75 4.8 40.6
04:30 1018 30.06 847 25.01 8.9 48 75 4.7 40.4
04:35 1017 30.03 847 25.01 8.9 48 76 5 40.9
04:40 1017 30.03 847 25.01 8.8 47.8 76 4.8 40.7
04:45 1017 30.03 847 25.01 9 48.3 75 4.9 40.8
04:50 1017 30.03 847 25.01 9.1 48.4 75 5 41
04:55 1017 30.03 847 25.01 9.1 48.5 75 4.9 40.8
05:00 1017 30.03 847 25.01 9.5 49 73 5 40.9
05:05 1017 30.03 847 25.01 9.5 49.2 73 5 40.9
05:10 1017 30.03 847 25.01 9.5 49.1 74 5.1 41.1
05:15 1017 30.03 847 25.01 9.2 48.5 75 5 41
05:20 1017 30.03 847 25.01 9 48.1 75 4.8 40.6
05:25 1017 30.03 847 25.01 8.7 47.7 77 4.8 40.7
05:30 1017 30.03 847 25.01 8.5 47.3 77 4.8 40.6
05:35 1017 30.03 846 24.98 8.5 47.4 77 4.8 40.6
05:40 1017 30.03 846 24.98 8.6 47.5 77 4.8 40.7
05:45 1017 30.03 846 24.98 8.7 47.6 76 4.7 40.5
05:50 1017 30.03 846 24.98 8.7 47.7 76 4.7 40.4
05:55 1017 30.03 846 24.98 8.9 48 75 4.8 40.7
06:00 1017 30.03 846 24.98 9 48.2 75 4.8 40.6
06:05 1017 30.03 846 24.98 9.1 48.4 74 4.8 40.6
06:10 1017 30.03 846 24.98 8.9 47.9 76 4.8 40.7
06:15 1017 30.03 846 24.98 8.6 47.4 77 4.7 40.5
06:20 1017 30.03 846 24.98 8.4 47.1 77 4.7 40.4
06:25 1017 30.03 846 24.98 8.4 47.2 76 4.5 40.1
06:30 1017 30.03 846 24.98 8.8 47.8 75 4.6 40.3
06:35 1017 30.03 846 24.98 8.9 48.1 75 4.7 40.4
06:40 1017 30.03 846 24.98 9 48.2 75 4.8 40.7
06:45 1017 30.03 846 24.98 9.1 48.4 74 4.8 40.6
06:50 1017 30.03 846 24.98 9.3 48.8 73 4.8 40.7
06:55 1017 30.03 846 24.98 9.4 48.9 74 5.1 41.1
07:00 1017 30.03 846 24.98 9.2 48.6 75 5 41
07:05 1017 30.03 847 25.01 9.2 48.6 74 4.9 40.7
07:10 1017 30.03 846 24.98 9.5 49 73 4.8 40.7
07:15 1017 30.03 846 24.98 9.6 49.3 73 5.1 41.1
07:20 1017 30.03 846 24.98 9.6 49.2 72 4.8 40.6
07:25 1017 30.03 846 24.98 9.7 49.4 71 4.7 40.5
07:30 1017 30.03 847 25.01 9.4 48.8 75 5.1 41.3
07:35 1017 30.03 847 25.01 9.3 48.7 73 4.8 40.6
07:40 1017 30.03 847 25.01 9.9 49.9 70 4.6 40.4
07:45 1017 30.03 847 25.01 10.4 50.7 69 5 41
07:50 1017 30.03 847 25.01 10.6 51 69 5.2 41.3
07:55 1018 30.06 847 25.01 10.9 51.7 68 5.3 41.5
08:00 1018 30.06 847 25.01 11.8 53.2 66 5.6 42.1
08:05 1018 30.06 847 25.01 11.7 53.1 66 5.6 42
08:10 1018 30.06 847 25.01 12.1 53.7 64 5.6 42.1
08:15 1018 30.06 847 25.01 12.3 54.2 65 5.9 42.6
08:20 1018 30.06 847 25.01 12.7 54.9 64 6 42.9
08:25 1018 30.06 847 25.01 13.3 55.9 62 6.2 43.2
08:30 1017 30.03 847 25.01 13.4 56.1 63 6.5 43.8
08:35 1017 30.03 847 25.01 13.2 55.8 66 7 44.6
08:40 1017 30.03 847 25.01 13 55.4 65 6.6 43.9
08:45 1018 30.06 847 25.01 13.6 56.5 64 7 44.5
08:50 1018 30.06 847 25.01 13.8 56.8 63 6.9 44.4
08:55 1018 30.06 847 25.01 13.6 56.5 66 7.5 45.5
09:00 1018 30.06 847 25.01 13.6 56.4 65 7.2 45
09:05 1018 30.06 847 25.01 13.8 56.8 66 7.6 45.7
09:10 1018 30.06 847 25.01 14.1 57.4 63 7.3 45.2
09:15 1018 30.06 847 25.01 14.2 57.5 62 7 44.6
09:20 1018 30.06 847 25.01 15.3 59.5 57 6.9 44.5
09:25 1017 30.03 847 25.01 15.2 59.4 59 7.3 45.1
09:30 1017 30.03 847 25.01 15.7 60.3 57 7.3 45.2
09:35 1017 30.03 847 25.01 16.6 61.8 57 8 46.4
09:40 1017 30.03 847 25.01 16.2 61.1 57 7.7 45.9
09:45 1017 30.03 847 25.01 16.8 62.3 54 7.6 45.7
09:50 1017 30.03 846 24.98 17.7 63.9 49 6.9 44.4
09:55 1017 30.03 846 24.98 18.3 65 48 7.3 45.2
10:00 1017 30.03 846 24.98 18.8 65.8 46 7.1 44.8
10:05 1017 30.03 846 24.98 19.2 66.6 45 7.2 45
10:10 1017 30.03 846 24.98 18.9 65.9 45 6.9 44.5
10:15 1017 30.03 846 24.98 18.6 65.5 48 7.4 45.4
10:20 1017 30.03 846 24.98 18.2 64.7 51 7.9 46.3
10:25 1017 30.03 846 24.98 17.7 63.8 52 7.9 46.2
10:30 1017 30.03 846 24.98 17.3 63.2 54 8 46.5
10:35 1017 30.03 847 25.01 17.8 64 52 7.8 46.1
10:40 1017 30.03 846 24.98 17.1 62.8 54 7.9 46.3
10:45 1017 30.03 846 24.98 17.3 63.2 53 7.8 46
10:50 1017 30.03 846 24.98 17.8 64 50 7.2 45
10:55 1017 30.03 846 24.98 18.3 64.9 49 7.5 45.5
11:00 1017 30.03 846 24.98 17.8 64 53 8.3 47
11:05 1017 30.03 846 24.98 17.3 63.1 53 7.8 46
11:10 1017 30.03 846 24.98 17.8 64 53 8.1 46.6
11:15 1017 30.03 846 24.98 17.8 64 54 8.5 47.3
11:20 1017 30.03 846 24.98 17.5 63.5 52 7.8 46
11:25 1017 30.03 846 24.98 17 62.5 56 8.1 46.6
11:30 1017 30.03 846 24.98 17 62.7 54 7.8 46
11:35 1017 30.03 846 24.98 16.7 62.1 55 7.7 45.9
11:40 1017 30.03 846 24.98 16.5 61.8 54 7.4 45.2
11:45 1017 30.03 846 24.98 16.3 61.4 56 7.6 45.7
11:50 1017 30.03 846 24.98 16.7 62.1 52 6.9 44.4
11:55 1017 30.03 846 24.98 16.9 62.3 52 7 44.6
12:00 1017 30.03 846 24.98 17.6 63.6 48 6.7 44
12:05 1017 30.03 846 24.98 18.1 64.6 49 7.3 45.1
12:10 1017 30.03 846 24.98 18.2 64.8 45 6.2 43.2
12:15 1017 30.03 846 24.98 19.5 67.1 41 6 42.8
12:20 1017 30.03 846 24.98 19.6 67.2 43 6.8 44.2
12:25 1017 30.03 846 24.98 20 67.9 43 7.1 44.7
12:30 1017 30.03 846 24.98 19.4 67 43 6.5 43.7
12:35 1017 30.03 846 24.98 18.8 65.8 45 6.8 44.2
12:40 1017 30.03 846 24.98 19.5 67 41 6.1 43
12:45 1017 30.03 846 24.98 20.2 68.3 40 6.2 43.2
12:50 1017 30.03 846 24.98 20.6 69 36 5.2 41.3
12:55 1017 30.03 846 24.98 21.1 69.9 36 5.8 42.4
13:00 1017 30.03 846 24.98 21 69.8 37 6.1 42.9
13:05 1016 30 846 24.98 20.9 69.5 38 6.2 43.2
13:10 1016 30 846 24.98 21.4 70.4 36 6 42.9
13:15 1016 30 845 24.95 21.5 70.7 34 5.1 41.1
13:20 1016 30 845 24.95 21.3 70.3 35 5.2 41.4
13:25 1016 30 845 24.95 22.2 71.9 35 6.2 43.1
13:30 1016 30 845 24.95 21.2 70.2 36 5.8 42.5
13:35 1016 30 845 24.95 21.9 71.5 32 4.9 40.8
13:40 1016 30 845 24.95 21.8 71.2 36 6.2 43.1
13:45 1016 30 845 24.95 21.7 71 33 4.7 40.5
13:50 1016 30 845 24.95 22.3 72.1 33 5.4 41.7
13:55 1016 30 845 24.95 22.3 72.1 33 5.2 41.4
14:00 1016 30 845 24.95 22.1 71.8 33 5.2 41.4
14:05 1016 30 845 24.95 22 71.6 34 5.4 41.8
14:10 1016 30 845 24.95 22.6 72.6 32 5.4 41.8
14:15 1016 30 845 24.95 22.8 73 32 5.5 42
14:20 1016 30 845 24.95 22.8 73.1 33 5.9 42.6
14:25 1016 30 845 24.95 22.9 73.2 32 5.6 42
14:30 1016 30 845 24.95 22.5 72.5 32 5.2 41.4
14:35 1015 29.97 845 24.95 23.2 73.7 31 5.1 41.2
14:40 1015 29.97 845 24.95 23.8 74.9 30 5.4 41.8
14:45 1015 29.97 844 24.92 23.3 73.9 32 6.1 43
14:50 1015 29.97 844 24.92 23.4 74.1 31 5.5 42
14:55 1015 29.97 844 24.92 23.7 74.6 31 5.5 42
15:00 1015 29.97 844 24.92 23.8 74.9 30 5.3 41.6
15:05 1015 29.97 844 24.92 23.9 75 30 5.7 42.3
15:10 1015 29.97 844 24.92 23.7 74.7 31 5.7 42.2
15:15 1015 29.97 844 24.92 23.7 74.7 30 5.5 41.9
15:20 1015 29.97 844 24.92 24.2 75.6 29 5.3 41.6
15:25 1015 29.97 844 24.92 23.3 73.9 31 5.5 42
15:30 1015 29.97 844 24.92 23.4 74 30 5.2 41.4
15:35 1015 29.97 844 24.92 23.7 74.6 30 5.4 41.7
15:40 1015 29.97 844 24.92 23.3 74 30 5 41
15:45 1015 29.97 844 24.92 23.6 74.5 32 6.2 43.2
15:50 1015 29.97 844 24.92 22.2 72 32 4.8 40.7
15:55 1015 29.97 844 24.92 22.4 72.3 31 4.7 40.5
16:00 1015 29.97 844 24.92 23.1 73.5 29 4.4 39.9
16:05 1015 29.97 844 24.92 23.8 74.9 28 4.6 40.2
16:10 1015 29.97 844 24.92 23.4 74.2 29 4.8 40.7
16:15 1015 29.97 844 24.92 22.9 73.2 31 4.9 40.8
16:20 1014 29.94 844 24.92 22.9 73.2 30 4.5 40.1
16:25 1014 29.94 844 24.92 22.9 73.3 30 4.7 40.5
16:30 1014 29.94 844 24.92 23 73.5 30 4.7 40.4
16:35 1014 29.94 844 24.92 23.5 74.3 30 5.1 41.2
16:40 1014 29.94 844 24.92 23.1 73.5 30 4.8 40.6
16:45 1014 29.94 844 24.92 22.7 72.9 31 4.9 40.8
16:50 1014 29.94 844 24.92 22.6 72.6 32 5.1 41.1
16:55 1014 29.94 844 24.92 22.9 73.2 30 4.5 40.1
17:00 1014 29.94 843 24.89 23.5 74.3 27 3.5 38.3
17:05 1014 29.94 843 24.89 23.6 74.6 26 3.4 38.2
17:10 1014 29.94 843 24.89 23.7 74.7 26 3.4 38.1
17:15 1014 29.94 844 24.92 23.6 74.6 26 3.2 37.7
17:20 1014 29.94 844 24.92 23.7 74.6 26 3.2 37.8
17:25 1014 29.94 844 24.92 23.7 74.7 28 4.2 39.5
17:30 1014 29.94 844 24.92 23.5 74.2 29 4.6 40.3
17:35 1014 29.94 844 24.92 23 73.3 31 5 40.9
17:40 1014 29.94 844 24.92 22.1 71.7 31 4.5 40.1
17:45 1015 29.97 844 24.92 21.5 70.8 32 4.4 40
17:50 1015 29.97 844 24.92 21.4 70.5 32 4 39.2
17:55 1015 29.97 844 24.92 21.4 70.5 31 3.7 38.7
18:00 1014 29.94 844 24.92 21.4 70.5 31 3.7 38.7
18:05 1015 29.97 844 24.92 21.4 70.4 31 3.8 38.8
18:10 1015 29.97 844 24.92 21.3 70.3 32 4.1 39.4
18:15 1015 29.97 844 24.92 21.3 70.3 33 4.5 40.2
18:20 1015 29.97 844 24.92 21.2 70.1 33 4.5 40.1
18:25 1015 29.97 844 24.92 21 69.8 35 5.3 41.5
18:30 1015 29.97 844 24.92 20.7 69.3 38 6.2 43.1
18:35 1015 29.97 844 24.92 20.2 68.3 39 6 42.8
18:40 1015 29.97 844 24.92 20 68 39 5.7 42.2
18:45 1015 29.97 844 24.92 19.7 67.4 40 5.7 42.3
18:50 1015 29.97 844 24.92 19.5 67.1 40 5.7 42.2
18:55 1015 29.97 844 24.92 19.4 67 40 5.7 42.3
19:00 1015 29.97 844 24.92 19.4 66.9 40 5.6 42.1
19:05 1015 29.97 844 24.92 19.3 66.8 39 5.3 41.5
19:10 1015 29.97 844 24.92 19.4 66.8 40 5.4 41.7
19:15 1015 29.97 844 24.92 19.4 66.8 40 5.5 41.8
19:20 1015 29.97 844 24.92 19.3 66.8 40 5.6 42
19:25 1015 29.97 844 24.92 19.3 66.7 40 5.5 41.8
19:30 1015 29.97 844 24.92 19 66.2 40 5.4 41.7
19:35 1015 29.97 844 24.92 18.8 65.8 44 6.6 43.8
19:40 1015 29.97 844 24.92 18.1 64.7 48 7 44.7
19:45 1015 29.97 844 24.92 17.6 63.8 48 6.6 43.9
19:50 1015 29.97 844 24.92 17.7 63.9 48 6.7 44
19:55 1015 29.97 844 24.92 17.9 64.1 46 6.2 43.2
20:00 1015 29.97 844 24.92 18 64.3 44 5.7 42.3
20:05 1015 29.97 844 24.92 18.1 64.6 43 5.6 42
20:10 1015 29.97 844 24.92 18.4 65 41 5.1 41.1
20:15 1015 29.97 844 24.92 18.7 65.6 42 5.5 41.9
20:20 1015 29.97 844 24.92 18.5 65.3 44 6.3 43.3
20:25 1015 29.97 844 24.92 18.3 64.9 42 5.4 41.7
20:30 1015 29.97 844 24.92 18.6 65.5 40 4.9 40.8
20:35 1015 29.97 844 24.92 18.9 65.9 40 5.2 41.3
20:40 1015 29.97 844 24.92 18.8 65.8 41 5.4 41.8
20:45 1015 29.97 844 24.92 18.7 65.7 42 5.6 42.1
20:50 1015 29.97 844 24.92 18.6 65.6 43 5.9 42.6
20:55 1015 29.97 845 24.95 18.5 65.3 43 5.9 42.5
21:00 1015 29.97 845 24.95 18.3 64.9 44 5.9 42.7
21:05 1015 29.97 845 24.95 17.9 64.3 45 6.1 42.9
21:10 1015 29.97 845 24.95 17.7 63.9 45 5.8 42.4
21:15 1016 30 845 24.95 17.6 63.8 45 5.6 42.1
21:20 1016 30 845 24.95 17.8 64 43 5.2 41.4
21:25 1016 30 845 24.95 18 64.4 43 5.2 41.4
21:30 1016 30 845 24.95 18.1 64.7 41 4.9 40.9
21:35 1016 30 845 24.95 18 64.5 48 7 44.6
21:40 1016 30 845 24.95 16.9 62.3 52 7.1 44.8
21:45 1016 30 845 24.95 16.5 61.6 52 6.8 44.2
21:50 1016 30 845 24.95 16.5 61.8 53 6.9 44.5
21:55 1016 30 845 24.95 16.4 61.5 54 7.1 44.8
22:00 1016 30 845 24.95 16.3 61.3 55 7.4 45.3
22:05 1016 30 845 24.95 16.2 61.2 55 7.3 45.1
22:10 1016 30 845 24.95 16.2 61.1 55 7.2 45
22:15 1016 30 845 24.95 15.9 60.7 56 7.3 45.1
22:20 1016 30 845 24.95 15.7 60.3 58 7.6 45.6
22:25 1016 30 845 24.95 15.7 60.2 54 6.5 43.7
22:30 1016 30 845 24.95 16.2 61.1 54 6.9 44.4
22:35 1016 30 845 24.95 16.1 60.9 55 7.2 44.9
22:40 1016 30 845 24.95 15.8 60.4 56 7.2 44.9
22:45 1016 30 845 24.95 15.6 60 56 7 44.7
22:50 1016 30 845 24.95 15.5 60 57 7.2 44.9
22:55 1016 30 846 24.98 15.5 59.8 56 6.7 44.1
23:00 1016 30 846 24.98 15.7 60.3 54 6.6 43.9
23:05 1016 30 846 24.98 15.8 60.4 56 7.2 44.9
23:10 1016 30 846 24.98 15.6 60.1 58 7.4 45.3
23:15 1016 30 846 24.98 15.4 59.8 57 7.1 44.8
23:20 1016 30 846 24.98 15.3 59.6 58 7.1 44.8
23:25 1016 30 846 24.98 15.1 59.2 58 7 44.7
23:30 1016 30 846 24.98 15 59 58 6.9 44.5
23:35 1016 30 846 24.98 15 58.9 58 6.9 44.5
23:40 1016 30 846 24.98 15 59.1 58 6.8 44.2
23:45 1016 30 846 24.98 15.2 59.3 57 6.8 44.2
23:50 1017 30.03 846 24.98 15 59.1 59 7.2 45
23:55 1017 30.03 846 24.98 14.3 57.7 61 7 44.6
24:00 1017 30.03 846 24.98 14 57.2 61 6.6 43.8